sensor_id;sensor_type;location;lat;lon;timestamp;pressure;altitude;pressure_sealevel;temperature;humidity
72685;BME280;61365;52.162;4.500;2023-02-28T00:01:25;103187.03;;;3.62;79.22
72685;BME280;61365;52.162;4.500;2023-02-28T00:03:51;103191.91;;;3.57;78.75
72685;BME280;61365;52.162;4.500;2023-02-28T00:06:17;103195.81;;;3.77;78.54
72685;BME280;61365;52.162;4.500;2023-02-28T00:08:44;103196.63;;;3.63;79.19
72685;BME280;61365;52.162;4.500;2023-02-28T00:11:12;103196.19;;;3.70;78.47
72685;BME280;61365;52.162;4.500;2023-02-28T00:13:42;103201.72;;;3.74;78.87
72685;BME280;61365;52.162;4.500;2023-02-28T00:16:15;103204.09;;;3.71;78.93
72685;BME280;61365;52.162;4.500;2023-02-28T00:18:46;103201.22;;;3.80;78.96
72685;BME280;61365;52.162;4.500;2023-02-28T00:21:13;103204.31;;;3.74;78.78
72685;BME280;61365;52.162;4.500;2023-02-28T00:23:40;103200.38;;;3.68;78.91
72685;BME280;61365;52.162;4.500;2023-02-28T00:26:06;103199.72;;;3.70;78.64
72685;BME280;61365;52.162;4.500;2023-02-28T00:28:33;103202.28;;;3.57;78.89
72685;BME280;61365;52.162;4.500;2023-02-28T00:30:59;103199.41;;;3.66;79.56
72685;BME280;61365;52.162;4.500;2023-02-28T00:33:27;103192.22;;;3.75;79.12
72685;BME280;61365;52.162;4.500;2023-02-28T00:36:07;103193.81;;;3.86;79.24
72685;BME280;61365;52.162;4.500;2023-02-28T00:38:37;103192.50;;;3.80;79.02
72685;BME280;61365;52.162;4.500;2023-02-28T00:41:05;103202.69;;;3.90;78.94
72685;BME280;61365;52.162;4.500;2023-02-28T00:43:34;103194.38;;;3.96;78.99
72685;BME280;61365;52.162;4.500;2023-02-28T00:46:02;103191.91;;;3.70;79.24
72685;BME280;61365;52.162;4.500;2023-02-28T00:48:29;103190.00;;;3.95;79.32
72685;BME280;61365;52.162;4.500;2023-02-28T00:50:56;103184.00;;;3.69;80.83
72685;BME280;61365;52.162;4.500;2023-02-28T00:53:22;103190.03;;;3.81;80.11
72685;BME280;61365;52.162;4.500;2023-02-28T00:55:50;103189.09;;;3.81;79.53
72685;BME280;61365;52.162;4.500;2023-02-28T00:58:17;103198.50;;;3.92;79.42
72685;BME280;61365;52.162;4.500;2023-02-28T01:00:44;103189.63;;;3.88;79.44
72685;BME280;61365;52.162;4.500;2023-02-28T01:03:19;103189.44;;;3.85;79.63
72685;BME280;61365;52.162;4.500;2023-02-28T01:05:46;103197.91;;;3.83;79.82
72685;BME280;61365;52.162;4.500;2023-02-28T01:08:14;103196.41;;;3.73;80.39
72685;BME280;61365;52.162;4.500;2023-02-28T01:10:41;103196.81;;;3.79;79.99
72685;BME280;61365;52.162;4.500;2023-02-28T01:13:08;103195.00;;;3.91;80.15
72685;BME280;61365;52.162;4.500;2023-02-28T01:15:34;103198.50;;;3.92;79.69
72685;BME280;61365;52.162;4.500;2023-02-28T01:18:01;103197.91;;;3.96;80.55
72685;BME280;61365;52.162;4.500;2023-02-28T01:20:27;103198.41;;;3.77;80.49
72685;BME280;61365;52.162;4.500;2023-02-28T01:22:54;103202.72;;;3.77;80.93
72685;BME280;61365;52.162;4.500;2023-02-28T01:25:20;103203.59;;;4.04;80.76
72685;BME280;61365;52.162;4.500;2023-02-28T01:27:46;103196.81;;;3.79;80.85
72685;BME280;61365;52.162;4.500;2023-02-28T01:30:13;103204.41;;;3.76;81.02
72685;BME280;61365;52.162;4.500;2023-02-28T01:32:40;103199.72;;;3.70;82.15
72685;BME280;61365;52.162;4.500;2023-02-28T01:35:06;103185.69;;;4.09;80.53
72685;BME280;61365;52.162;4.500;2023-02-28T01:37:33;103188.41;;;3.97;81.06
72685;BME280;61365;52.162;4.500;2023-02-28T01:39:59;103185.47;;;4.05;80.36
72685;BME280;61365;52.162;4.500;2023-02-28T01:42:26;103189.28;;;4.11;80.99
72685;BME280;61365;52.162;4.500;2023-02-28T01:44:57;103187.16;;;4.18;80.97
72685;BME280;61365;52.162;4.500;2023-02-28T01:47:29;103190.69;;;4.05;80.77
72685;BME280;61365;52.162;4.500;2023-02-28T01:50:10;103181.09;;;4.04;80.99
72685;BME280;61365;52.162;4.500;2023-02-28T01:52:41;103180.69;;;4.12;80.58
72685;BME280;61365;52.162;4.500;2023-02-28T01:55:10;103171.69;;;4.20;80.25
72685;BME280;61365;52.162;4.500;2023-02-28T01:57:47;103175.69;;;4.28;80.47
72685;BME280;61365;52.162;4.500;2023-02-28T02:00:21;103172.34;;;4.31;80.77
72685;BME280;61365;52.162;4.500;2023-02-28T02:02:54;103177.06;;;4.23;81.16
72685;BME280;61365;52.162;4.500;2023-02-28T02:05:25;103160.88;;;4.27;80.20
72685;BME280;61365;52.162;4.500;2023-02-28T02:08:11;103166.22;;;4.15;81.22
72685;BME280;61365;52.162;4.500;2023-02-28T02:10:45;103165.22;;;4.13;81.39
72685;BME280;61365;52.162;4.500;2023-02-28T02:16:24;103177.63;;;4.32;80.87
72685;BME280;61365;52.162;4.500;2023-02-28T02:37:08;103150.63;;;4.44;80.81
72685;BME280;61365;52.162;4.500;2023-02-28T02:39:48;103149.47;;;4.25;81.07
72685;BME280;61365;52.162;4.500;2023-02-28T02:42:44;103150.03;;;4.34;80.70
72685;BME280;61365;52.162;4.500;2023-02-28T02:45:34;103153.25;;;4.30;80.81
72685;BME280;61365;52.162;4.500;2023-02-28T02:48:15;103154.34;;;4.34;80.52
72685;BME280;61365;52.162;4.500;2023-02-28T02:50:50;103151.56;;;4.31;81.18
72685;BME280;61365;52.162;4.500;2023-02-28T02:53:25;103156.34;;;4.38;80.49
72685;BME280;61365;52.162;4.500;2023-02-28T02:55:58;103155.34;;;4.36;80.60
72685;BME280;61365;52.162;4.500;2023-02-28T02:58:32;103149.16;;;4.34;81.38
72685;BME280;61365;52.162;4.500;2023-02-28T03:01:10;103153.78;;;4.53;80.50
72685;BME280;61365;52.162;4.500;2023-02-28T03:03:40;103151.19;;;4.53;80.41
72685;BME280;61365;52.162;4.500;2023-02-28T03:06:07;103149.56;;;4.27;80.65
72685;BME280;61365;52.162;4.500;2023-02-28T03:08:36;103154.00;;;4.14;82.28
72685;BME280;61365;52.162;4.500;2023-02-28T03:11:06;103159.56;;;4.34;81.59
72685;BME280;61365;52.162;4.500;2023-02-28T03:16:49;103162.75;;;4.58;80.43
72685;BME280;61365;52.162;4.500;2023-02-28T03:30:52;103145.81;;;4.08;82.94
72685;BME280;61365;52.162;4.500;2023-02-28T03:33:30;103144.72;;;4.04;82.88
72685;BME280;61365;52.162;4.500;2023-02-28T03:36:10;103150.75;;;4.03;82.42
72685;BME280;61365;52.162;4.500;2023-02-28T03:38:49;103141.94;;;4.01;83.02
72685;BME280;61365;52.162;4.500;2023-02-28T03:41:25;103137.03;;;3.93;83.37
72685;BME280;61365;52.162;4.500;2023-02-28T03:44:12;103131.19;;;4.24;82.79
72685;BME280;61365;52.162;4.500;2023-02-28T03:46:51;103143.28;;;4.23;82.28
72685;BME280;61365;52.162;4.500;2023-02-28T03:49:26;103140.16;;;4.29;81.95
72685;BME280;61365;52.162;4.500;2023-02-28T03:51:59;103133.69;;;4.22;82.19
72685;BME280;61365;52.162;4.500;2023-02-28T03:54:32;103145.94;;;4.38;81.69
72685;BME280;61365;52.162;4.500;2023-02-28T04:00:11;103139.53;;;4.61;79.30
72685;BME280;61365;52.162;4.500;2023-02-28T04:02:43;103143.88;;;4.47;80.67
72685;BME280;61365;52.162;4.500;2023-02-28T04:05:09;103143.03;;;4.33;80.84
72685;BME280;61365;52.162;4.500;2023-02-28T04:07:36;103146.75;;;4.37;80.57
72685;BME280;61365;52.162;4.500;2023-02-28T04:10:04;103152.88;;;4.53;80.30
72685;BME280;61365;52.162;4.500;2023-02-28T04:12:31;103153.78;;;4.53;80.22
72685;BME280;61365;52.162;4.500;2023-02-28T04:14:57;103154.44;;;4.35;80.77
72685;BME280;61365;52.162;4.500;2023-02-28T04:17:24;103156.00;;;4.47;80.10
72685;BME280;61365;52.162;4.500;2023-02-28T04:19:50;103151.19;;;4.53;80.48
72685;BME280;61365;52.162;4.500;2023-02-28T04:22:19;103156.63;;;4.43;81.17
72685;BME280;61365;52.162;4.500;2023-02-28T04:24:45;103151.34;;;4.41;80.84
72685;BME280;61365;52.162;4.500;2023-02-28T04:27:11;103155.63;;;4.41;81.09
72685;BME280;61365;52.162;4.500;2023-02-28T04:29:38;103160.03;;;4.42;81.29
72685;BME280;61365;52.162;4.500;2023-02-28T04:32:04;103153.22;;;4.44;81.52
72685;BME280;61365;52.162;4.500;2023-02-28T04:34:31;103161.75;;;4.28;82.11
72685;BME280;61365;52.162;4.500;2023-02-28T04:36:59;103159.75;;;4.37;81.76
72685;BME280;61365;52.162;4.500;2023-02-28T04:39:26;103159.88;;;4.25;81.57
72685;BME280;61365;52.162;4.500;2023-02-28T04:41:52;103153.91;;;4.13;82.79
72685;BME280;61365;52.162;4.500;2023-02-28T04:44:19;103163.28;;;4.11;83.52
72685;BME280;61365;52.162;4.500;2023-02-28T04:46:47;103154.56;;;4.24;83.54
72685;BME280;61365;52.162;4.500;2023-02-28T04:49:14;103156.31;;;4.10;83.73
72685;BME280;61365;52.162;4.500;2023-02-28T04:51:41;103160.22;;;4.03;83.65
72685;BME280;61365;52.162;4.500;2023-02-28T04:54:08;103156.09;;;4.20;83.10
72685;BME280;61365;52.162;4.500;2023-02-28T04:56:34;103159.50;;;4.05;83.86
72685;BME280;61365;52.162;4.500;2023-02-28T04:59:01;103150.09;;;4.21;82.53
72685;BME280;61365;52.162;4.500;2023-02-28T05:01:30;103155.75;;;4.00;83.63
72685;BME280;61365;52.162;4.500;2023-02-28T05:03:59;103159.53;;;3.92;84.57
72685;BME280;61365;52.162;4.500;2023-02-28T05:06:30;103156.94;;;3.79;84.19
72685;BME280;61365;52.162;4.500;2023-02-28T05:08:58;103152.75;;;3.81;84.96
72685;BME280;61365;52.162;4.500;2023-02-28T05:11:27;103151.72;;;4.05;83.89
72685;BME280;61365;52.162;4.500;2023-02-28T05:13:55;103150.75;;;3.90;83.46
72685;BME280;61365;52.162;4.500;2023-02-28T05:16:22;103160.53;;;3.94;83.16
72685;BME280;61365;52.162;4.500;2023-02-28T05:18:48;103152.22;;;4.00;82.55
72685;BME280;61365;52.162;4.500;2023-02-28T05:21:27;103156.84;;;3.90;81.82
72685;BME280;61365;52.162;4.500;2023-02-28T05:23:55;103157.53;;;3.88;82.33
72685;BME280;61365;52.162;4.500;2023-02-28T05:26:23;103148.75;;;3.99;80.59
72685;BME280;61365;52.162;4.500;2023-02-28T05:28:50;103150.09;;;4.08;80.18
72685;BME280;61365;52.162;4.500;2023-02-28T05:31:16;103155.22;;;3.93;79.31
72685;BME280;61365;52.162;4.500;2023-02-28T05:33:43;103155.06;;;3.76;79.17
72685;BME280;61365;52.162;4.500;2023-02-28T05:36:09;103158.97;;;3.69;79.75
72685;BME280;61365;52.162;4.500;2023-02-28T05:38:36;103162.34;;;3.82;79.97
72685;BME280;61365;52.162;4.500;2023-02-28T05:41:10;103154.63;;;4.10;77.76
72685;BME280;61365;52.162;4.500;2023-02-28T05:43:37;103156.34;;;3.83;78.99
72685;BME280;61365;52.162;4.500;2023-02-28T05:46:09;103156.66;;;3.87;79.93
72685;BME280;61365;52.162;4.500;2023-02-28T05:48:37;103152.16;;;3.98;79.54
72685;BME280;61365;52.162;4.500;2023-02-28T05:51:05;103158.34;;;3.87;78.68
72685;BME280;61365;52.162;4.500;2023-02-28T05:53:34;103156.53;;;3.86;79.17
72685;BME280;61365;52.162;4.500;2023-02-28T05:56:01;103151.97;;;3.68;79.82
72685;BME280;61365;52.162;4.500;2023-02-28T05:58:28;103156.56;;;3.72;80.05
72685;BME280;61365;52.162;4.500;2023-02-28T06:00:57;103153.34;;;3.90;78.83
72685;BME280;61365;52.162;4.500;2023-02-28T06:03:25;103159.34;;;3.89;80.03
72685;BME280;61365;52.162;4.500;2023-02-28T06:05:53;103163.53;;;3.87;79.98
72685;BME280;61365;52.162;4.500;2023-02-28T06:08:19;103162.66;;;3.86;79.96
72685;BME280;61365;52.162;4.500;2023-02-28T06:10:46;103158.16;;;3.70;78.65
72685;BME280;61365;52.162;4.500;2023-02-28T06:13:12;103168.53;;;3.84;78.17
72685;BME280;61365;52.162;4.500;2023-02-28T06:15:39;103166.25;;;3.75;77.59
72685;BME280;61365;52.162;4.500;2023-02-28T06:18:06;103158.44;;;3.75;78.12
72685;BME280;61365;52.162;4.500;2023-02-28T06:20:35;103163.97;;;3.53;77.85
72685;BME280;61365;52.162;4.500;2023-02-28T06:23:02;103156.56;;;3.45;77.87
72685;BME280;61365;52.162;4.500;2023-02-28T06:25:31;103162.34;;;3.55;78.31
72685;BME280;61365;52.162;4.500;2023-02-28T06:27:57;103161.97;;;3.49;79.11
72685;BME280;61365;52.162;4.500;2023-02-28T06:30:24;103158.75;;;3.39;78.07
72685;BME280;61365;52.162;4.500;2023-02-28T06:32:53;103159.66;;;3.40;78.27
72685;BME280;61365;52.162;4.500;2023-02-28T06:35:20;103165.44;;;3.36;79.12
72685;BME280;61365;52.162;4.500;2023-02-28T06:37:47;103165.22;;;3.46;78.62
72685;BME280;61365;52.162;4.500;2023-02-28T06:40:14;103160.13;;;3.34;79.17
72685;BME280;61365;52.162;4.500;2023-02-28T06:42:40;103170.09;;;3.28;80.20
72685;BME280;61365;52.162;4.500;2023-02-28T06:45:07;103169.88;;;3.11;81.61
72685;BME280;61365;52.162;4.500;2023-02-28T06:47:36;103176.34;;;3.05;81.53
72685;BME280;61365;52.162;4.500;2023-02-28T06:50:04;103176.91;;;2.87;82.41
72685;BME280;61365;52.162;4.500;2023-02-28T06:52:31;103171.44;;;2.96;82.31
72685;BME280;61365;52.162;4.500;2023-02-28T06:54:58;103180.38;;;3.26;81.88
72685;BME280;61365;52.162;4.500;2023-02-28T06:57:29;103182.19;;;3.14;82.95
72685;BME280;61365;52.162;4.500;2023-02-28T07:00:00;103191.78;;;2.90;84.23
72685;BME280;61365;52.162;4.500;2023-02-28T07:02:28;103188.84;;;2.60;86.29
72685;BME280;61365;52.162;4.500;2023-02-28T07:04:55;103192.47;;;2.87;84.72
72685;BME280;61365;52.162;4.500;2023-02-28T07:07:21;103193.28;;;2.49;87.38
72685;BME280;61365;52.162;4.500;2023-02-28T07:09:48;103196.97;;;2.52;87.61
72685;BME280;61365;52.162;4.500;2023-02-28T07:12:14;103202.34;;;2.42;88.47
72685;BME280;61365;52.162;4.500;2023-02-28T07:14:41;103201.59;;;2.19;89.12
72685;BME280;61365;52.162;4.500;2023-02-28T07:17:09;103214.31;;;2.16;89.61
72685;BME280;61365;52.162;4.500;2023-02-28T07:19:38;103207.25;;;1.90;90.09
72685;BME280;61365;52.162;4.500;2023-02-28T07:22:06;103220.09;;;1.88;89.37
72685;BME280;61365;52.162;4.500;2023-02-28T07:24:33;103215.94;;;1.78;89.54
72685;BME280;61365;52.162;4.500;2023-02-28T07:26:59;103217.84;;;1.69;88.47
72685;BME280;61365;52.162;4.500;2023-02-28T07:29:26;103223.38;;;1.62;89.08
72685;BME280;61365;52.162;4.500;2023-02-28T07:31:53;103224.91;;;1.36;89.19
72685;BME280;61365;52.162;4.500;2023-02-28T07:34:20;103230.19;;;1.49;89.94
72685;BME280;61365;52.162;4.500;2023-02-28T07:36:47;103221.59;;;1.27;90.26
72685;BME280;61365;52.162;4.500;2023-02-28T07:39:13;103226.03;;;1.40;90.17
72685;BME280;61365;52.162;4.500;2023-02-28T07:41:39;103227.66;;;1.27;90.16
72685;BME280;61365;52.162;4.500;2023-02-28T07:44:10;103229.22;;;1.13;90.49
72685;BME280;61365;52.162;4.500;2023-02-28T07:46:37;103230.63;;;1.32;90.88
72685;BME280;61365;52.162;4.500;2023-02-28T07:49:05;103233.69;;;1.38;89.99
72685;BME280;61365;52.162;4.500;2023-02-28T07:51:32;103236.81;;;1.34;89.92
72685;BME280;61365;52.162;4.500;2023-02-28T07:53:59;103235.34;;;1.38;90.36
72685;BME280;61365;52.162;4.500;2023-02-28T07:56:25;103234.59;;;1.62;89.73
72685;BME280;61365;52.162;4.500;2023-02-28T07:58:51;103229.50;;;1.52;89.30
72685;BME280;61365;52.162;4.500;2023-02-28T08:01:19;103222.34;;;1.48;89.56
72685;BME280;61365;52.162;4.500;2023-02-28T08:03:46;103225.03;;;1.49;90.12
72685;BME280;61365;52.162;4.500;2023-02-28T08:06:20;103227.41;;;1.70;89.36
72685;BME280;61365;52.162;4.500;2023-02-28T08:08:49;103227.38;;;1.58;89.05
72685;BME280;61365;52.162;4.500;2023-02-28T08:11:16;103234.34;;;1.47;89.95
72685;BME280;61365;52.162;4.500;2023-02-28T08:13:44;103239.63;;;1.37;90.64
72685;BME280;61365;52.162;4.500;2023-02-28T08:16:13;103242.53;;;1.30;90.70
72685;BME280;61365;52.162;4.500;2023-02-28T08:18:49;103233.47;;;1.47;90.79
72685;BME280;61365;52.162;4.500;2023-02-28T08:21:19;103238.75;;;1.14;91.18
72685;BME280;61365;52.162;4.500;2023-02-28T08:23:48;103245.09;;;1.18;91.71
72685;BME280;61365;52.162;4.500;2023-02-28T08:26:16;103235.28;;;1.14;92.09
72685;BME280;61365;52.162;4.500;2023-02-28T08:28:44;103243.59;;;1.10;92.51
72685;BME280;61365;52.162;4.500;2023-02-28T08:31:12;103243.84;;;1.13;92.10
72685;BME280;61365;52.162;4.500;2023-02-28T08:33:42;103241.25;;;1.13;91.89
72685;BME280;61365;52.162;4.500;2023-02-28T08:36:11;103245.34;;;1.21;91.81
72685;BME280;61365;52.162;4.500;2023-02-28T08:38:38;103235.50;;;1.05;92.72
72685;BME280;61365;52.162;4.500;2023-02-28T08:41:07;103236.50;;;1.07;92.77
72685;BME280;61365;52.162;4.500;2023-02-28T08:43:36;103237.03;;;1.25;92.61
72685;BME280;61365;52.162;4.500;2023-02-28T08:46:04;103229.38;;;1.27;91.51
72685;BME280;61365;52.162;4.500;2023-02-28T08:48:33;103229.50;;;1.40;91.33
72685;BME280;61365;52.162;4.500;2023-02-28T08:51:05;103228.91;;;1.32;91.68
72685;BME280;61365;52.162;4.500;2023-02-28T08:53:36;103223.97;;;1.35;92.40
72685;BME280;61365;52.162;4.500;2023-02-28T08:56:08;103232.44;;;1.45;92.07
72685;BME280;61365;52.162;4.500;2023-02-28T08:58:36;103239.69;;;1.61;91.08
72685;BME280;61365;52.162;4.500;2023-02-28T09:01:13;103229.75;;;1.55;91.13
72685;BME280;61365;52.162;4.500;2023-02-28T09:03:42;103219.41;;;1.79;90.80
72685;BME280;61365;52.162;4.500;2023-02-28T09:06:10;103221.88;;;1.54;89.79
72685;BME280;61365;52.162;4.500;2023-02-28T09:08:37;103217.97;;;1.83;90.19
72685;BME280;61365;52.162;4.500;2023-02-28T09:11:05;103219.53;;;2.04;89.08
72685;BME280;61365;52.162;4.500;2023-02-28T09:13:32;103225.78;;;2.32;88.99
72685;BME280;61365;52.162;4.500;2023-02-28T09:16:00;103217.31;;;2.46;88.61
72685;BME280;61365;52.162;4.500;2023-02-28T09:18:28;103215.47;;;2.57;87.85
72685;BME280;61365;52.162;4.500;2023-02-28T09:20:55;103213.31;;;2.63;87.84
72685;BME280;61365;52.162;4.500;2023-02-28T09:23:24;103213.00;;;2.84;86.97
72685;BME280;61365;52.162;4.500;2023-02-28T09:25:52;103219.50;;;2.91;85.99
72685;BME280;61365;52.162;4.500;2023-02-28T09:28:21;103214.84;;;2.98;85.22
72685;BME280;61365;52.162;4.500;2023-02-28T09:30:51;103218.88;;;3.07;83.65
72685;BME280;61365;52.162;4.500;2023-02-28T09:33:20;103207.91;;;3.11;84.22
72685;BME280;61365;52.162;4.500;2023-02-28T09:35:49;103208.13;;;3.14;82.87
72685;BME280;61365;52.162;4.500;2023-02-28T09:38:17;103212.19;;;3.10;82.52
72685;BME280;61365;52.162;4.500;2023-02-28T09:41:01;103229.72;;;3.01;82.93
72685;BME280;61365;52.162;4.500;2023-02-28T09:43:38;103228.94;;;3.02;83.02
72685;BME280;61365;52.162;4.500;2023-02-28T09:49:21;103226.28;;;3.14;83.31
72685;BME280;61365;52.162;4.500;2023-02-28T09:52:01;103221.78;;;3.11;82.37
72685;BME280;61365;52.162;4.500;2023-02-28T09:54:36;103231.91;;;3.34;81.20
72685;BME280;61365;52.162;4.500;2023-02-28T09:57:13;103234.34;;;3.57;79.96
72685;BME280;61365;52.162;4.500;2023-02-28T10:05:27;103225.06;;;3.61;77.07
72685;BME280;61365;52.162;4.500;2023-02-28T10:08:28;103226.31;;;3.41;78.45
72685;BME280;61365;52.162;4.500;2023-02-28T10:11:07;103225.28;;;3.51;73.59
72685;BME280;61365;52.162;4.500;2023-02-28T10:16:50;103217.34;;;3.36;74.46
72685;BME280;61365;52.162;4.500;2023-02-28T10:19:47;103222.63;;;3.37;75.13
72685;BME280;61365;52.162;4.500;2023-02-28T10:22:58;103229.47;;;3.62;74.95
72685;BME280;61365;52.162;4.500;2023-02-28T10:25:35;103234.44;;;3.45;76.64
72685;BME280;61365;52.162;4.500;2023-02-28T10:28:14;103235.53;;;3.49;75.34
72685;BME280;61365;52.162;4.500;2023-02-28T10:30:49;103235.03;;;3.41;77.04
72685;BME280;61365;52.162;4.500;2023-02-28T10:33:22;103232.25;;;3.52;75.67
72685;BME280;61365;52.162;4.500;2023-02-28T10:35:50;103225.06;;;3.61;76.72
72685;BME280;61365;52.162;4.500;2023-02-28T10:38:23;103232.25;;;3.65;75.28
72685;BME280;61365;52.162;4.500;2023-02-28T10:41:12;103235.88;;;3.67;75.15
72685;BME280;61365;52.162;4.500;2023-02-28T10:43:43;103249.66;;;3.27;73.34
72685;BME280;61365;52.162;4.500;2023-02-28T10:49:00;103246.06;;;3.25;67.42
72685;BME280;61365;52.162;4.500;2023-02-28T10:51:38;103235.38;;;2.95;68.68
72685;BME280;61365;52.162;4.500;2023-02-28T10:54:15;103235.03;;;3.16;70.42
72685;BME280;61365;52.162;4.500;2023-02-28T10:56:44;103228.38;;;3.20;70.59
72685;BME280;61365;52.162;4.500;2023-02-28T10:59:29;103221.75;;;3.37;69.71
72685;BME280;61365;52.162;4.500;2023-02-28T11:01:56;103224.84;;;3.06;68.47
72685;BME280;61365;52.162;4.500;2023-02-28T11:07:18;103227.94;;;3.00;70.15
72685;BME280;61365;52.162;4.500;2023-02-28T11:09:56;103215.75;;;3.38;68.07
72685;BME280;61365;52.162;4.500;2023-02-28T11:12:29;103204.16;;;3.33;67.80
72685;BME280;61365;52.162;4.500;2023-02-28T11:15:27;103208.69;;;3.62;67.22
72685;BME280;61365;52.162;4.500;2023-02-28T11:18:15;103204.88;;;3.43;68.06
72685;BME280;61365;52.162;4.500;2023-02-28T11:20:56;103211.38;;;3.37;67.79
72685;BME280;61365;52.162;4.500;2023-02-28T11:23:27;103199.66;;;3.30;69.45
72685;BME280;61365;52.162;4.500;2023-02-28T11:26:00;103196.72;;;3.51;66.27
72685;BME280;61365;52.162;4.500;2023-02-28T11:28:37;103204.09;;;3.85;66.21
72685;BME280;61365;52.162;4.500;2023-02-28T11:36:25;103200.75;;;4.41;59.88
72685;BME280;61365;52.162;4.500;2023-02-28T11:38:58;103194.53;;;4.39;58.72
72685;BME280;61365;52.162;4.500;2023-02-28T11:51:12;103184.47;;;4.17;61.51
72685;BME280;61365;52.162;4.500;2023-02-28T11:54:07;103186.63;;;4.38;61.78
72685;BME280;61365;52.162;4.500;2023-02-28T11:57:00;103182.63;;;4.86;57.93
72685;BME280;61365;52.162;4.500;2023-02-28T12:08:43;103169.31;;;4.66;56.09
72685;BME280;61365;52.162;4.500;2023-02-28T12:14:05;103159.53;;;4.91;56.75
72685;BME280;61365;52.162;4.500;2023-02-28T12:28:17;103164.00;;;4.93;55.65
72685;BME280;61365;52.162;4.500;2023-02-28T12:30:56;103153.03;;;4.99;52.92
72685;BME280;61365;52.162;4.500;2023-02-28T12:33:34;103141.41;;;5.69;48.14
72685;BME280;61365;52.162;4.500;2023-02-28T12:36:09;103145.69;;;5.37;48.92
72685;BME280;61365;52.162;4.500;2023-02-28T12:41:26;103137.41;;;4.84;49.27
72685;BME280;61365;52.162;4.500;2023-02-28T12:44:09;103137.19;;;5.09;50.08
72685;BME280;61365;52.162;4.500;2023-02-28T12:46:47;103141.31;;;4.91;49.28
72685;BME280;61365;52.162;4.500;2023-02-28T12:49:25;103144.44;;;5.00;49.00
72685;BME280;61365;52.162;4.500;2023-02-28T12:51:59;103144.44;;;5.30;48.85
72685;BME280;61365;52.162;4.500;2023-02-28T12:54:43;103136.09;;;5.21;48.88
72685;BME280;61365;52.162;4.500;2023-02-28T13:00:19;103147.16;;;4.58;51.86
72685;BME280;61365;52.162;4.500;2023-02-28T13:09:05;103122.72;;;5.00;50.59
72685;BME280;61365;52.162;4.500;2023-02-28T13:11:50;103118.03;;;5.09;52.29
72685;BME280;61365;52.162;4.500;2023-02-28T13:14:28;103120.94;;;5.29;49.73
72685;BME280;61365;52.162;4.500;2023-02-28T13:17:03;103110.59;;;5.30;50.54
72685;BME280;61365;52.162;4.500;2023-02-28T13:19:57;103114.63;;;5.40;49.71
72685;BME280;61365;52.162;4.500;2023-02-28T13:24:52;103105.34;;;5.60;51.09
72685;BME280;61365;52.162;4.500;2023-02-28T13:27:22;103125.53;;;5.03;50.51
72685;BME280;61365;52.162;4.500;2023-02-28T13:29:57;103109.97;;;5.04;54.25
72685;BME280;61365;52.162;4.500;2023-02-28T13:39:53;103095.44;;;5.08;51.94
72685;BME280;61365;52.162;4.500;2023-02-28T13:47:44;103095.16;;;5.33;50.43
72685;BME280;61365;52.162;4.500;2023-02-28T13:50:29;103095.44;;;5.08;51.37
72685;BME280;61365;52.162;4.500;2023-02-28T13:58:54;103088.41;;;5.22;50.83
72685;BME280;61365;52.162;4.500;2023-02-28T14:04:48;103077.50;;;5.13;51.84
72685;BME280;61365;52.162;4.500;2023-02-28T14:07:26;103076.09;;;5.49;50.73
72685;BME280;61365;52.162;4.500;2023-02-28T14:10:24;103074.44;;;5.66;51.33
72685;BME280;61365;52.162;4.500;2023-02-28T14:21:08;103063.09;;;5.66;48.29
72685;BME280;61365;52.162;4.500;2023-02-28T14:23:46;103075.81;;;5.45;47.29
72685;BME280;61365;52.162;4.500;2023-02-28T14:26:44;103069.28;;;5.36;48.24
72685;BME280;61365;52.162;4.500;2023-02-28T14:37:54;103059.53;;;5.80;46.93
72685;BME280;61365;52.162;4.500;2023-02-28T14:40:28;103054.22;;;5.62;47.42
72685;BME280;61365;52.162;4.500;2023-02-28T14:43:00;103059.38;;;5.46;47.88
72685;BME280;61365;52.162;4.500;2023-02-28T14:45:33;103054.50;;;5.52;48.16
72685;BME280;61365;52.162;4.500;2023-02-28T14:48:05;103058.66;;;5.80;48.05
72685;BME280;61365;52.162;4.500;2023-02-28T14:50:36;103047.34;;;5.96;47.82
72685;BME280;61365;52.162;4.500;2023-02-28T14:53:06;103061.84;;;5.91;48.51
72685;BME280;61365;52.162;4.500;2023-02-28T14:55:45;103052.59;;;5.64;48.65
72685;BME280;61365;52.162;4.500;2023-02-28T15:00:59;103057.66;;;5.30;49.24
72685;BME280;61365;52.162;4.500;2023-02-28T15:03:39;103055.22;;;5.64;49.50
72685;BME280;61365;52.162;4.500;2023-02-28T15:06:14;103051.81;;;5.82;49.76
72685;BME280;61365;52.162;4.500;2023-02-28T15:08:44;103047.34;;;5.96;48.45
72685;BME280;61365;52.162;4.500;2023-02-28T15:11:16;103044.44;;;6.06;47.29
72685;BME280;61365;52.162;4.500;2023-02-28T15:13:54;103048.00;;;6.08;47.83
72685;BME280;61365;52.162;4.500;2023-02-28T15:16:29;103048.59;;;6.03;46.61
72685;BME280;61365;52.162;4.500;2023-02-28T15:21:58;103061.16;;;6.10;47.48
72685;BME280;61365;52.162;4.500;2023-02-28T15:24:44;103051.94;;;6.16;46.78
72685;BME280;61365;52.162;4.500;2023-02-28T15:27:17;103053.22;;;6.08;47.25
72685;BME280;61365;52.162;4.500;2023-02-28T15:29:51;103066.41;;;5.95;47.75
72685;BME280;61365;52.162;4.500;2023-02-28T15:32:28;103057.06;;;5.67;47.95
72685;BME280;61365;52.162;4.500;2023-02-28T15:34:58;103053.16;;;6.07;47.29
72685;BME280;61365;52.162;4.500;2023-02-28T15:37:52;103075.94;;;5.63;47.04
72685;BME280;61365;52.162;4.500;2023-02-28T15:40:27;103071.59;;;5.78;47.51
72685;BME280;61365;52.162;4.500;2023-02-28T15:43:17;103065.41;;;5.76;48.07
72685;BME280;61365;52.162;4.500;2023-02-28T15:46:09;103062.63;;;5.73;47.44
72685;BME280;61365;52.162;4.500;2023-02-28T15:48:52;103058.63;;;5.63;50.00
72685;BME280;61365;52.162;4.500;2023-02-28T15:51:33;103055.53;;;5.70;48.66
72685;BME280;61365;52.162;4.500;2023-02-28T15:54:10;103063.50;;;5.57;47.52
72685;BME280;61365;52.162;4.500;2023-02-28T15:56:47;103051.88;;;5.67;48.19
72685;BME280;61365;52.162;4.500;2023-02-28T15:59:20;103054.88;;;5.75;47.95